Time;durP1;ratioP1;P1;durP2;ratioP2;P2;SDS_P1;SDS_P2;PMS_P1;PMS_P2;Temp;Humidity;BMP_temperature;BMP_pressure;BME280_temperature;BME280_humidity;BME280_pressure;Samples;Min_cycle;Max_cycle;Signal;HPM_P1;HPM_P2
2023/05/14 00:00:52;;;;;;;2.97;2.63;;;;;;;15.57;56.26;95455.81;5043660;28;20336;-65
2023/05/14 00:03:18;;;;;;;3.25;2.95;;;;;;;15.58;56.05;95458.28;5044477;28;20299;-65
2023/05/14 00:05:45;;;;;;;5.15;2.58;;;;;;;15.53;56.42;95454.25;5046112;28;20314;-65
2023/05/14 00:08:13;;;;;;;2.80;2.60;;;;;;;15.51;56.36;95454.31;5047588;28;20284;-66
2023/05/14 00:10:39;;;;;;;5.15;3.10;;;;;;;15.42;56.63;95449.63;5047714;28;20332;-66
2023/05/14 00:13:06;;;;;;;6.05;2.78;;;;;;;15.38;56.79;95447.25;5048002;28;20308;-66
2023/05/14 00:15:33;;;;;;;3.78;3.03;;;;;;;15.40;56.59;95442.91;5050499;28;20297;-64
2023/05/14 00:18:00;;;;;;;3.03;2.53;;;;;;;15.35;57.07;95437.16;5049492;28;20317;-65
2023/05/14 00:20:26;;;;;;;3.22;2.80;;;;;;;15.40;56.73;95446.28;5048628;28;20332;-63
2023/05/14 00:22:53;;;;;;;3.13;2.70;;;;;;;15.40;56.68;95443.72;5049323;28;21072;-65
2023/05/14 00:25:21;;;;;;;4.28;2.70;;;;;;;15.37;56.56;95441.31;5049659;28;20336;-65
2023/05/14 00:27:47;;;;;;;3.03;2.70;;;;;;;15.35;56.32;95432.88;5049442;28;20736;-65
2023/05/14 00:30:14;;;;;;;2.90;2.70;;;;;;;15.43;56.22;95428.22;5049644;28;20380;-65
2023/05/14 00:32:41;;;;;;;3.00;2.80;;;;;;;15.45;56.37;95433.28;5049279;28;20826;-65
2023/05/14 00:35:08;;;;;;;3.67;2.80;;;;;;;15.42;56.42;95429.13;5049385;28;20268;-66
2023/05/14 00:37:36;;;;;;;4.55;2.80;;;;;;;15.45;56.37;95428.16;5049026;28;20288;-65
2023/05/14 00:40:05;;;;;;;3.10;2.80;;;;;;;15.40;56.60;95425.81;5049565;28;20684;-65
2023/05/14 00:42:33;;;;;;;3.88;2.95;;;;;;;15.52;56.29;95434.66;5048111;28;20202;-65
2023/05/14 00:45:00;;;;;;;3.65;2.45;;;;;;;15.55;55.69;95421.72;5046860;28;20261;-65
2023/05/14 00:47:27;;;;;;;2.92;2.70;;;;;;;15.46;55.64;95422.97;5048356;28;20202;-65
2023/05/14 00:49:54;;;;;;;3.60;2.90;;;;;;;15.43;56.03;95422.28;5049395;28;20306;-66
2023/05/14 00:52:21;;;;;;;2.90;2.70;;;;;;;15.41;55.84;95421.50;5048194;28;20740;-65
2023/05/14 00:54:48;;;;;;;3.03;2.83;;;;;;;15.40;55.98;95423.25;5048146;28;20640;-65
2023/05/14 00:57:15;;;;;;;3.33;3.03;;;;;;;15.39;55.93;95413.06;5048377;28;20325;-66
2023/05/14 00:59:44;;;;;;;3.60;2.65;;;;;;;15.39;56.18;95419.03;5047719;28;20208;-66
2023/05/14 01:02:10;;;;;;;7.78;4.53;;;;;;;15.34;56.17;95405.63;5048036;28;20198;-66
2023/05/14 01:04:38;;;;;;;4.70;3.35;;;;;;;15.39;56.12;95413.91;5049504;28;20301;-66
2023/05/14 01:07:13;;;;;;;3.58;3.28;;;;;;;15.38;56.40;95422.47;5048032;28;20344;-65
2023/05/14 01:09:47;;;;;;;5.47;3.20;;;;;;;15.31;56.62;95421.13;5047597;28;20297;-65
2023/05/14 01:12:21;;;;;;;5.85;2.83;;;;;;;15.25;56.76;95414.56;5048208;28;20325;-65
2023/05/14 01:14:57;;;;;;;3.08;2.88;;;;;;;15.21;56.98;95396.84;5048674;28;20786;-66
2023/05/14 01:17:29;;;;;;;2.85;2.55;;;;;;;15.18;56.78;95404.66;5047349;28;20206;-65
2023/05/14 01:19:56;;;;;;;2.97;2.78;;;;;;;15.15;56.56;95412.47;5048875;28;20207;-66
2023/05/14 01:22:24;;;;;;;2.50;2.40;;;;;;;15.11;56.28;95414.34;5046788;28;20297;-64
2023/05/14 01:24:51;;;;;;;3.10;2.35;;;;;;;15.06;56.53;95423.16;5048446;28;20266;-64
2023/05/14 01:27:26;;;;;;;2.38;2.20;;;;;;;15.03;56.01;95431.78;5048398;28;20313;-64
2023/05/14 01:29:59;;;;;;;2.80;2.60;;;;;;;15.01;55.95;95438.72;5048054;28;20634;-65
2023/05/14 01:32:27;;;;;;;2.22;2.13;;;;;;;15.05;55.92;95436.84;5048238;28;20442;-65
2023/05/14 01:34:58;;;;;;;8.73;2.70;;;;;;;15.04;56.15;95438.56;5049233;28;20315;-65
2023/05/14 01:37:28;;;;;;;3.50;2.72;;;;;;;14.98;55.88;95434.56;5048985;28;20293;-65
2023/05/14 01:39:55;;;;;;;2.20;2.10;;;;;;;15.01;56.01;95437.88;5048753;28;20646;-65
2023/05/14 01:42:23;;;;;;;4.40;2.75;;;;;;;15.02;55.97;95434.41;5048565;28;20670;-66
2023/05/14 01:44:50;;;;;;;2.42;2.33;;;;;;;15.04;55.48;95436.00;5048835;28;20237;-65
2023/05/14 01:47:16;;;;;;;3.60;2.58;;;;;;;14.95;55.80;95433.84;5048813;28;20210;-65
2023/05/14 01:49:43;;;;;;;3.00;2.40;;;;;;;15.01;55.90;95427.63;5048574;28;20202;-66
2023/05/14 01:52:10;;;;;;;2.40;2.30;;;;;;;14.94;55.58;95417.66;5047385;28;20309;-66
2023/05/14 01:54:38;;;;;;;7.22;2.28;;;;;;;14.97;55.98;95432.88;5046692;28;20234;-65
2023/05/14 01:57:05;;;;;;;2.17;1.95;;;;;;;15.04;55.82;95440.31;5047486;28;20290;-66
2023/05/14 01:59:32;;;;;;;2.58;2.38;;;;;;;15.08;55.96;95440.09;5046106;28;20297;-67
2023/05/14 02:01:59;;;;;;;2.92;2.72;;;;;;;14.94;56.30;95427.91;5046410;28;20290;-66
2023/05/14 02:04:25;;;;;;;2.10;1.98;;;;;;;15.06;56.24;95435.94;5045574;28;20289;-69
2023/05/14 02:06:52;;;;;;;2.15;2.05;;;;;;;14.95;56.04;95433.84;5045318;28;20294;-66
2023/05/14 02:09:19;;;;;;;2.88;2.30;;;;;;;14.93;56.38;95440.78;5045809;28;20337;-66
2023/05/14 02:11:47;;;;;;;2.72;2.53;;;;;;;14.87;56.02;95436.75;5046152;28;20338;-66
2023/05/14 02:14:14;;;;;;;2.58;2.22;;;;;;;14.83;56.25;95439.53;5045651;28;20511;-67
2023/05/14 02:16:40;;;;;;;2.38;2.17;;;;;;;14.77;56.87;95434.69;5047327;28;20190;-64
2023/05/14 02:19:07;;;;;;;2.67;2.30;;;;;;;14.77;57.11;95438.06;5047597;28;20355;-65
2023/05/14 02:21:35;;;;;;;2.65;2.45;;;;;;;14.67;57.81;95448.75;5047413;28;20285;-66
2023/05/14 02:24:01;;;;;;;2.28;2.00;;;;;;;14.67;58.52;95449.59;5046362;28;20273;-67
2023/05/14 02:26:28;;;;;;;4.40;2.85;;;;;;;14.57;58.66;95446.63;5046955;28;20302;-66
2023/05/14 02:28:56;;;;;;;2.47;2.28;;;;;;;14.49;59.99;95452.94;5045707;28;20294;-67
2023/05/14 02:31:23;;;;;;;2.22;1.83;;;;;;;14.43;60.06;95453.19;5047210;28;20267;-66
2023/05/14 02:33:49;;;;;;;4.15;2.38;;;;;;;14.44;60.05;95455.69;5047426;28;20862;-65
2023/05/14 02:36:16;;;;;;;2.78;2.20;;;;;;;14.42;60.62;95448.97;5047072;28;20285;-65
2023/05/14 02:38:42;;;;;;;2.65;2.45;;;;;;;14.36;61.05;95449.19;5046647;28;20823;-65
2023/05/14 02:41:09;;;;;;;4.90;2.25;;;;;;;14.37;60.84;95455.97;5046370;28;20324;-65
2023/05/14 02:43:36;;;;;;;2.10;2.00;;;;;;;14.38;61.58;95463.56;5045549;28;20235;-65
2023/05/14 02:46:04;;;;;;;2.95;2.47;;;;;;;14.30;61.01;95463.91;5045713;28;20293;-66
2023/05/14 02:48:31;;;;;;;3.08;2.05;;;;;;;14.30;61.66;95461.38;5047529;28;20289;-66
2023/05/14 02:50:57;;;;;;;2.63;2.35;;;;;;;14.27;60.92;95481.94;5045835;28;20312;-65
2023/05/14 02:53:24;;;;;;;2.55;2.45;;;;;;;14.23;61.35;95480.41;5046311;28;20317;-66
2023/05/14 02:55:51;;;;;;;2.28;2.17;;;;;;;14.23;61.16;95470.19;5046271;28;20301;-65
2023/05/14 02:58:17;;;;;;;3.65;2.35;;;;;;;14.24;61.14;95471.84;5044963;28;20336;-63
2023/05/14 03:00:44;;;;;;;2.58;2.38;;;;;;;14.20;60.71;95475.41;5045816;28;20206;-63
2023/05/14 03:03:12;;;;;;;2.50;2.30;;;;;;;14.29;60.61;95469.09;5047725;28;20683;-64
2023/05/14 03:05:39;;;;;;;7.40;2.00;;;;;;;14.29;60.97;95464.81;5046447;28;21318;-63
2023/05/14 03:08:06;;;;;;;2.45;2.25;;;;;;;14.27;60.89;95471.72;5046094;28;20315;-63
2023/05/14 03:10:32;;;;;;;2.67;2.00;;;;;;;14.28;60.59;95473.38;5046170;28;20210;-64
2023/05/14 03:12:59;;;;;;;3.03;2.20;;;;;;;14.29;60.20;95457.16;5047083;28;20353;-61
2023/05/14 03:15:26;;;;;;;3.53;2.40;;;;;;;14.28;60.28;95441.88;5045945;28;20749;-64
2023/05/14 03:17:52;;;;;;;2.72;2.40;;;;;;;14.33;60.18;95451.91;5046290;28;20261;-65
2023/05/14 03:20:20;;;;;;;2.28;1.92;;;;;;;14.35;60.04;95447.56;5045745;28;20234;-65
2023/05/14 03:22:47;;;;;;;3.90;2.30;;;;;;;14.31;60.45;95451.97;5047128;28;20681;-64
2023/05/14 03:25:14;;;;;;;6.07;2.08;;;;;;;14.32;59.96;95463.03;5047137;28;20335;-62
2023/05/14 03:27:40;;;;;;;2.40;2.15;;;;;;;14.34;59.58;95464.63;5046190;28;20661;-65
2023/05/14 03:30:08;;;;;;;2.40;2.20;;;;;;;14.25;60.23;95462.44;5047228;28;20301;-64
2023/05/14 03:32:36;;;;;;;2.38;2.28;;;;;;;14.23;60.60;95472.72;5045994;28;20379;-66
2023/05/14 03:35:03;;;;;;;2.15;2.05;;;;;;;14.21;61.48;95469.41;5048136;28;20280;-65
2023/05/14 03:37:31;;;;;;;2.92;2.25;;;;;;;14.06;61.68;95480.25;5045556;28;20293;-65
2023/05/14 03:39:57;;;;;;;2.55;2.45;;;;;;;13.94;61.66;95473.06;5046391;28;20301;-66
2023/05/14 03:42:24;;;;;;;2.45;2.25;;;;;;;13.95;62.96;95475.56;5046723;28;20290;-66
2023/05/14 03:44:50;;;;;;;2.15;2.05;;;;;;;14.01;63.61;95469.38;5045185;28;20963;-66
2023/05/14 03:47:17;;;;;;;2.30;2.10;;;;;;;13.81;63.71;95461.69;5045725;28;20252;-67
2023/05/14 03:49:44;;;;;;;3.35;2.60;;;;;;;13.85;63.98;95460.69;5044443;28;20684;-62
2023/05/14 03:52:11;;;;;;;4.43;2.28;;;;;;;13.78;63.87;95469.47;5045863;28;20686;-65
2023/05/14 03:54:40;;;;;;;3.58;1.98;;;;;;;13.73;63.92;95472.22;5045955;28;21059;-63
2023/05/14 03:57:06;;;;;;;3.55;2.30;;;;;;;13.55;64.16;95486.53;5045926;28;20698;-65
2023/05/14 03:59:33;;;;;;;2.40;1.95;;;;;;;13.60;64.09;95469.31;5045409;28;20343;-66
2023/05/14 04:02:00;;;;;;;2.55;2.35;;;;;;;13.60;64.44;95471.88;5045921;28;20293;-64
2023/05/14 04:04:27;;;;;;;3.75;2.08;;;;;;;13.75;63.92;95472.97;5044977;28;20297;-63
2023/05/14 04:06:53;;;;;;;3.33;2.50;;;;;;;13.68;63.90;95486.03;5044197;28;20741;-64
2023/05/14 04:09:20;;;;;;;3.22;2.53;;;;;;;13.71;63.70;95478.25;5042428;28;20333;-64
2023/05/14 04:11:48;;;;;;;2.50;2.30;;;;;;;13.86;63.41;95485.31;5044305;28;20202;-64
2023/05/14 04:14:15;;;;;;;2.53;2.33;;;;;;;13.91;63.48;95488.53;5044468;28;20290;-66
2023/05/14 04:16:41;;;;;;;2.30;2.20;;;;;;;13.99;63.31;95486.50;5044348;28;20202;-65
2023/05/14 04:19:08;;;;;;;4.13;2.13;;;;;;;13.97;63.11;95490.84;5044936;28;20238;-63
2023/05/14 04:21:34;;;;;;;2.72;2.53;;;;;;;13.98;63.11;95484.84;5045936;28;20293;-64
2023/05/14 04:24:01;;;;;;;2.95;2.75;;;;;;;14.02;63.11;95486.38;5046271;28;20751;-64
2023/05/14 04:26:28;;;;;;;3.03;2.30;;;;;;;14.01;62.82;95489.00;5044946;28;20297;-62
2023/05/14 04:28:57;;;;;;;6.63;2.30;;;;;;;13.89;62.24;95497.97;5044680;28;20297;-65
2023/05/14 04:31:23;;;;;;;2.78;2.30;;;;;;;13.91;62.23;95501.31;5046061;28;20210;-65
2023/05/14 04:33:50;;;;;;;4.60;2.45;;;;;;;13.89;61.51;95497.97;5045989;28;20226;-64
2023/05/14 04:36:17;;;;;;;2.40;2.30;;;;;;;13.86;61.78;95510.88;5045801;28;20289;-64
2023/05/14 04:38:44;;;;;;;5.45;2.20;;;;;;;13.80;62.18;95516.25;5045617;28;20709;-65
2023/05/14 04:41:10;;;;;;;2.70;2.40;;;;;;;13.84;62.00;95505.00;5046076;28;20206;-67
2023/05/14 04:43:37;;;;;;;3.15;2.47;;;;;;;13.93;61.73;95517.41;5045427;28;20230;-67
2023/05/14 04:46:05;;;;;;;2.70;2.47;;;;;;;13.94;61.59;95519.06;5045881;28;20340;-67
2023/05/14 04:48:32;;;;;;;5.32;2.13;;;;;;;13.85;62.31;95529.66;5044877;28;20787;-64
2023/05/14 04:50:58;;;;;;;1.88;1.77;;;;;;;13.77;61.65;95526.56;5044548;28;20258;-63
2023/05/14 04:53:25;;;;;;;2.15;2.05;;;;;;;13.79;63.34;95538.41;5046123;28;20677;-63
2023/05/14 04:55:52;;;;;;;2.40;2.25;;;;;;;13.79;63.40;95537.56;5049007;28;20210;-65
2023/05/14 04:58:19;;;;;;;2.40;2.30;;;;;;;13.66;64.60;95544.84;5048645;28;20215;-63
2023/05/14 05:00:46;;;;;;;2.85;2.65;;;;;;;13.72;65.41;95546.34;5048606;28;20337;-64
2023/05/14 05:03:14;;;;;;;3.15;2.15;;;;;;;13.89;66.72;95541.41;5049714;28;20221;-64
2023/05/14 05:05:40;;;;;;;2.53;2.42;;;;;;;13.88;65.94;95558.47;5047964;28;20230;-63
2023/05/14 05:08:07;;;;;;;2.50;2.30;;;;;;;13.78;66.96;95564.00;5049482;28;20289;-64
2023/05/14 05:10:34;;;;;;;3.72;2.42;;;;;;;13.66;66.99;95567.00;5049041;28;20308;-63
2023/05/14 05:13:01;;;;;;;2.53;2.20;;;;;;;13.62;68.20;95574.78;5049571;28;20321;-64
2023/05/14 05:15:27;;;;;;;2.60;2.42;;;;;;;13.66;69.78;95564.44;5049329;28;20291;-64
2023/05/14 05:17:54;;;;;;;4.72;2.80;;;;;;;13.63;69.61;95571.31;5049128;28;20226;-65
2023/05/14 05:20:23;;;;;;;3.25;2.65;;;;;;;13.55;70.05;95569.97;5048761;28;20375;-64
2023/05/14 05:22:50;;;;;;;3.08;2.33;;;;;;;13.41;70.33;95575.56;5050077;28;20195;-64
2023/05/14 05:25:17;;;;;;;2.83;2.63;;;;;;;13.44;71.98;95585.66;5050569;28;20283;-65
2023/05/14 05:27:43;;;;;;;3.45;2.60;;;;;;;13.35;72.45;95580.91;5047694;28;20301;-61
2023/05/14 05:30:11;;;;;;;3.42;2.70;;;;;;;13.23;73.61;95584.72;5048055;28;20597;-64
2023/05/14 05:32:38;;;;;;;4.70;4.07;;;;;;;12.99;75.04;95587.28;5047854;28;20790;-65
2023/05/14 05:35:05;;;;;;;5.65;3.13;;;;;;;12.86;77.50;95592.81;5047493;28;20650;-64
2023/05/14 05:37:33;;;;;;;3.10;2.90;;;;;;;12.84;77.95;95592.03;5048754;28;20285;-65
2023/05/14 05:40:00;;;;;;;2.85;2.67;;;;;;;12.78;78.51;95586.28;5048544;28;22123;-65
2023/05/14 05:42:26;;;;;;;4.18;2.90;;;;;;;12.79;79.80;95587.97;5048583;28;20708;-63
2023/05/14 05:44:53;;;;;;;3.60;3.30;;;;;;;12.67;80.25;95594.28;5048794;28;20333;-65
2023/05/14 05:47:20;;;;;;;4.03;3.20;;;;;;;12.60;81.16;95585.19;5048959;28;20247;-66
2023/05/14 05:49:46;;;;;;;3.50;3.25;;;;;;;12.58;81.48;95597.16;5048290;28;20293;-62
2023/05/14 05:52:13;;;;;;;3.65;3.20;;;;;;;12.41;83.25;95594.31;5047417;28;20285;-65
2023/05/14 05:54:41;;;;;;;5.15;4.15;;;;;;;12.27;84.54;95587.94;5047870;28;20596;-66
2023/05/14 05:57:08;;;;;;;4.50;4.10;;;;;;;12.20;84.90;95589.00;5048279;28;20673;-63
2023/05/14 05:59:35;;;;;;;4.18;3.88;;;;;;;12.12;85.47;95583.34;5048103;28;20298;-64
2023/05/14 06:02:01;;;;;;;3.95;3.65;;;;;;;12.05;87.19;95569.13;5045695;28;20214;-62
2023/05/14 06:04:28;;;;;;;4.75;4.43;;;;;;;12.00;87.19;95581.16;5045608;28;20526;-65
2023/05/14 06:06:54;;;;;;;4.72;4.40;;;;;;;11.87;88.42;95578.16;5046422;28;20293;-65
2023/05/14 06:09:21;;;;;;;4.68;4.18;;;;;;;11.83;88.47;95583.41;5047369;28;20324;-66
2023/05/14 06:11:49;;;;;;;5.05;4.57;;;;;;;11.91;87.76;95587.34;5046160;28;20289;-65
2023/05/14 06:14:16;;;;;;;4.30;3.88;;;;;;;11.83;88.19;95578.31;5046654;28;20250;-63
2023/05/14 06:16:42;;;;;;;4.60;4.30;;;;;;;11.86;88.37;95581.59;5047289;28;20313;-64
2023/05/14 06:19:09;;;;;;;5.22;4.07;;;;;;;11.98;88.66;95580.38;5048557;28;20313;-65
2023/05/14 06:21:36;;;;;;;4.65;4.22;;;;;;;12.11;89.29;95584.22;5047891;28;20293;-66
2023/05/14 06:24:03;;;;;;;4.85;4.38;;;;;;;12.14;88.19;95578.16;5047136;28;20239;-65
2023/05/14 06:26:30;;;;;;;4.60;4.22;;;;;;;12.06;88.31;95573.34;5048024;28;20206;-65
2023/05/14 06:28:58;;;;;;;4.18;3.80;;;;;;;12.07;88.44;95580.09;5048045;28;20251;-65
2023/05/14 06:31:25;;;;;;;4.50;4.20;;;;;;;11.98;88.61;95590.56;5047227;28;20380;-64
2023/05/14 06:33:51;;;;;;;4.80;4.03;;;;;;;12.04;89.35;95597.19;5046103;28;20237;-65
2023/05/14 06:36:18;;;;;;;4.05;3.58;;;;;;;11.83;88.31;95602.06;5047989;28;20297;-61
2023/05/14 06:38:45;;;;;;;6.35;4.63;;;;;;;11.78;89.48;95603.06;5047592;28;20283;-65
2023/05/14 06:41:11;;;;;;;4.40;4.00;;;;;;;11.73;90.87;95602.31;5047512;28;20242;-64
2023/05/14 06:43:38;;;;;;;4.95;4.45;;;;;;;11.81;91.41;95592.78;5046709;28;20289;-65
2023/05/14 06:46:06;;;;;;;5.30;4.90;;;;;;;11.74;92.04;95593.81;5046289;28;20231;-62
2023/05/14 06:48:33;;;;;;;6.53;5.88;;;;;;;11.72;92.56;95598.94;5047113;28;20289;-65
2023/05/14 06:50:59;;;;;;;7.53;5.70;;;;;;;11.81;92.86;95587.69;5047533;28;20321;-64
2023/05/14 06:53:26;;;;;;;7.82;4.85;;;;;;;11.70;92.98;95582.88;5046241;28;20234;-64
2023/05/14 06:55:53;;;;;;;4.45;4.15;;;;;;;11.60;92.68;95578.97;5046391;28;20301;-64
2023/05/14 06:58:19;;;;;;;5.90;5.40;;;;;;;11.55;93.96;95574.00;5046076;28;20293;-65
2023/05/14 07:00:46;;;;;;;9.20;6.53;;;;;;;11.55;94.86;95586.72;5047050;28;20289;-65
2023/05/14 07:03:14;;;;;;;8.05;5.60;;;;;;;11.61;95.15;95575.53;5047724;28;20206;-65
2023/05/14 07:05:40;;;;;;;9.05;5.90;;;;;;;11.66;95.04;95577.91;5045866;28;20290;-65
2023/05/14 07:08:07;;;;;;;9.25;6.32;;;;;;;11.65;94.27;95588.97;5047464;28;20210;-64
2023/05/14 07:10:34;;;;;;;7.10;6.57;;;;;;;11.69;94.91;95598.19;5045664;28;20817;-65
2023/05/14 07:13:02;;;;;;;8.23;6.57;;;;;;;11.91;95.04;95589.06;5047253;28;20318;-64
2023/05/14 07:15:28;;;;;;;7.50;6.75;;;;;;;12.27;93.84;95598.13;5046169;28;20206;-64
2023/05/14 07:17:55;;;;;;;8.07;7.45;;;;;;;12.47;93.41;95612.78;5046985;28;20253;-63
2023/05/14 07:20:23;;;;;;;7.68;7.03;;;;;;;12.59;91.61;95620.06;5046871;28;20348;-62
2023/05/14 07:22:51;;;;;;;7.50;6.68;;;;;;;12.64;91.29;95614.78;5044491;28;20252;-64
2023/05/14 07:25:17;;;;;;;8.10;7.15;;;;;;;12.35;90.44;95603.00;5047080;28;20296;-65
2023/05/14 07:27:44;;;;;;;8.65;6.65;;;;;;;12.27;91.96;95602.41;5047371;28;20286;-65
2023/05/14 07:30:11;;;;;;;8.18;7.18;;;;;;;12.33;91.89;95604.75;5046814;28;20225;-64
2023/05/14 07:32:38;;;;;;;10.95;7.00;;;;;;;12.23;91.80;95598.28;5046165;28;20415;-64
2023/05/14 07:35:06;;;;;;;10.77;6.35;;;;;;;12.24;92.33;95593.13;5044926;28;20689;-65
2023/05/14 07:37:34;;;;;;;7.00;6.40;;;;;;;12.05;92.67;95598.84;5046180;28;22219;-65
2023/05/14 07:40:01;;;;;;;7.93;7.18;;;;;;;12.11;93.09;95607.16;5045877;28;20260;-65
2023/05/14 07:42:28;;;;;;;7.68;6.90;;;;;;;12.42;92.02;95608.72;5047511;28;20249;-66
2023/05/14 07:44:54;;;;;;;6.68;6.18;;;;;;;12.31;90.68;95605.69;5046324;28;20327;-64
2023/05/14 07:47:21;;;;;;;6.75;6.25;;;;;;;12.21;91.31;95610.22;5045253;28;20202;-66
2023/05/14 07:49:48;;;;;;;8.02;7.35;;;;;;;12.26;91.72;95606.66;5046117;28;20318;-63
2023/05/14 07:52:14;;;;;;;6.78;6.28;;;;;;;12.37;91.69;95613.16;5046510;28;20370;-66
2023/05/14 07:54:42;;;;;;;10.07;7.00;;;;;;;12.31;91.15;95626.06;5045709;28;20391;-64
2023/05/14 07:57:09;;;;;;;8.00;7.22;;;;;;;12.45;90.54;95629.84;5047130;28;20309;-64
2023/05/14 07:59:35;;;;;;;9.48;6.13;;;;;;;12.52;91.27;95620.28;5046141;28;20280;-65
2023/05/14 08:02:02;;;;;;;7.97;6.05;;;;;;;12.58;90.50;95618.38;5044325;28;20289;-64
2023/05/14 08:04:29;;;;;;;6.13;5.57;;;;;;;12.35;90.16;95620.84;5043224;28;20234;-64
2023/05/14 08:06:57;;;;;;;5.53;5.07;;;;;;;12.34;88.96;95620.88;5045623;28;20633;-64
2023/05/14 08:09:23;;;;;;;5.53;5.13;;;;;;;12.32;89.28;95627.75;5046328;28;20260;-62
2023/05/14 08:11:51;;;;;;;5.10;4.70;;;;;;;12.50;89.35;95632.25;5044116;28;20331;-66
2023/05/14 08:14:20;;;;;;;5.43;4.90;;;;;;;12.43;88.74;95610.38;5043905;28;20696;-65
2023/05/14 08:16:47;;;;;;;4.93;4.50;;;;;;;12.40;88.39;95613.84;5045295;28;20210;-66
2023/05/14 08:19:15;;;;;;;6.85;4.95;;;;;;;12.32;88.88;95599.72;5046314;28;20217;-67
2023/05/14 08:21:41;;;;;;;5.32;4.82;;;;;;;12.29;89.46;95602.34;5044470;28;20349;-66
2023/05/14 08:24:08;;;;;;;6.00;5.50;;;;;;;12.39;90.29;95606.25;5045578;28;20458;-65
2023/05/14 08:26:35;;;;;;;5.88;5.38;;;;;;;12.70;89.66;95591.63;5045769;28;20309;-64
2023/05/14 08:29:03;;;;;;;6.85;5.25;;;;;;;12.67;89.18;95593.44;5048770;28;20206;-64
2023/05/14 08:31:29;;;;;;;7.15;5.65;;;;;;;12.69;88.40;95584.88;5050592;28;20290;-66
2023/05/14 08:33:56;;;;;;;5.85;5.32;;;;;;;12.72;87.84;95599.25;5050344;28;20316;-64
2023/05/14 08:36:23;;;;;;;8.50;5.80;;;;;;;12.75;88.52;95596.59;5048719;28;20297;-65
2023/05/14 08:38:49;;;;;;;6.90;5.40;;;;;;;12.88;89.11;95585.06;5050307;28;20295;-65
2023/05/14 08:41:16;;;;;;;7.07;5.47;;;;;;;13.04;88.04;95582.84;5049980;28;20221;-66
2023/05/14 08:43:50;;;;;;;7.47;5.78;;;;;;;12.92;86.79;95584.91;5049419;28;20752;-65
2023/05/14 08:46:23;;;;;;;5.90;5.35;;;;;;;12.81;87.35;95579.38;5048438;28;20293;-63
2023/05/14 08:48:56;;;;;;;6.57;5.47;;;;;;;12.79;87.73;95577.75;5049237;28;20238;-64
2023/05/14 08:51:23;;;;;;;5.55;5.15;;;;;;;12.94;87.56;95588.25;5049940;28;20226;-64
2023/05/14 08:53:50;;;;;;;6.35;5.47;;;;;;;12.99;87.75;95572.78;5049922;28;20325;-65
2023/05/14 08:56:18;;;;;;;5.28;4.93;;;;;;;12.92;87.85;95572.16;5049161;28;20202;-62
2023/05/14 08:58:45;;;;;;;5.63;5.15;;;;;;;12.78;87.23;95573.53;5047593;28;20563;-65
2023/05/14 09:01:12;;;;;;;6.88;5.95;;;;;;;12.72;87.14;95582.22;5049021;28;20301;-64
2023/05/14 09:03:40;;;;;;;4.95;4.63;;;;;;;12.65;87.25;95590.13;5050435;28;20325;-66
2023/05/14 09:06:08;;;;;;;9.00;6.10;;;;;;;12.82;87.47;95587.84;5048386;28;20767;-65
2023/05/14 09:08:35;;;;;;;5.57;5.07;;;;;;;13.02;86.94;95587.16;5049095;28;20226;-66
2023/05/14 09:11:02;;;;;;;6.60;5.43;;;;;;;13.30;85.84;95580.25;5049989;28;20884;-64
2023/05/14 09:13:29;;;;;;;5.75;5.25;;;;;;;13.39;85.59;95572.22;5048369;28;20819;-67
2023/05/14 09:15:56;;;;;;;6.72;5.18;;;;;;;13.26;84.16;95571.84;5047221;28;20261;-65
2023/05/14 09:18:23;;;;;;;7.70;5.57;;;;;;;13.28;85.22;95571.81;5049273;28;20302;-63
2023/05/14 09:20:51;;;;;;;5.70;5.20;;;;;;;13.19;85.50;95575.50;5047235;28;22110;-65
2023/05/14 09:23:18;;;;;;;5.80;5.38;;;;;;;13.28;85.25;95580.28;5049169;28;20298;-64
2023/05/14 09:25:47;;;;;;;6.35;5.90;;;;;;;13.06;84.63;95584.47;5049150;28;20629;-66
2023/05/14 09:28:17;;;;;;;6.28;5.78;;;;;;;13.34;84.59;95579.25;5048552;28;20198;-64
2023/05/14 09:30:47;;;;;;;5.63;5.13;;;;;;;13.21;84.44;95558.41;5049398;28;20217;-66
2023/05/14 09:33:26;;;;;;;5.95;5.28;;;;;;;13.13;84.74;95559.53;5049177;28;20198;-63
2023/05/14 09:35:55;;;;;;;7.07;5.38;;;;;;;13.01;86.01;95567.66;5047952;28;20233;-66
2023/05/14 09:38:27;;;;;;;6.00;5.35;;;;;;;13.02;85.44;95561.66;5046552;28;20298;-64
2023/05/14 09:40:54;;;;;;;5.50;5.07;;;;;;;13.03;86.18;95548.00;5047892;28;20850;-65
2023/05/14 09:43:20;;;;;;;7.22;5.72;;;;;;;13.01;85.46;95544.69;5048442;28;20297;-65
2023/05/14 09:45:47;;;;;;;5.30;4.80;;;;;;;13.02;85.75;95551.44;5048718;28;20297;-63
2023/05/14 09:48:14;;;;;;;5.95;5.53;;;;;;;12.77;86.99;95557.41;5047546;28;20297;-64
2023/05/14 09:50:42;;;;;;;5.78;5.15;;;;;;;12.82;86.25;95554.69;5047981;28;20292;-65
2023/05/14 09:53:10;;;;;;;6.28;5.78;;;;;;;13.15;86.57;95550.09;5047934;28;20309;-64
2023/05/14 09:55:39;;;;;;;5.93;5.45;;;;;;;13.06;84.28;95553.84;5047746;28;20324;-66
2023/05/14 09:58:05;;;;;;;6.60;6.10;;;;;;;13.12;84.51;95547.66;5047052;28;20297;-62
2023/05/14 10:00:33;;;;;;;6.90;6.20;;;;;;;13.06;85.03;95553.00;5045366;28;20360;-65
2023/05/14 10:03:05;;;;;;;7.13;6.63;;;;;;;13.03;84.42;95542.91;5046835;28;20297;-65
2023/05/14 10:05:34;;;;;;;5.88;5.47;;;;;;;12.80;85.40;95530.97;5047082;28;20287;-65
2023/05/14 10:08:05;;;;;;;6.80;6.03;;;;;;;12.63;87.29;95521.31;5046770;28;20293;-62
2023/05/14 10:10:37;;;;;;;6.85;6.35;;;;;;;12.52;87.21;95525.97;5044684;28;20322;-64
2023/05/14 10:13:05;;;;;;;6.65;6.00;;;;;;;12.49;87.72;95520.97;5044106;28;20225;-65
2023/05/14 10:15:39;;;;;;;8.98;6.18;;;;;;;12.49;87.81;95516.69;5045480;28;20231;-64
2023/05/14 10:18:10;;;;;;;7.53;6.82;;;;;;;12.39;88.12;95494.09;5046611;28;20253;-64
2023/05/14 10:20:38;;;;;;;7.40;6.72;;;;;;;12.35;88.65;95482.38;5044283;28;20198;-65
2023/05/14 10:23:06;;;;;;;7.05;6.45;;;;;;;12.40;89.38;95495.78;5045625;28;20682;-66
2023/05/14 10:25:35;;;;;;;7.22;6.50;;;;;;;12.24;90.40;95501.41;5045052;28;20234;-64
2023/05/14 10:28:02;;;;;;;11.25;6.53;;;;;;;12.43;90.94;95511.81;5044447;28;20671;-63
2023/05/14 10:30:29;;;;;;;8.35;6.97;;;;;;;12.34;90.08;95521.50;5043963;28;20810;-65
2023/05/14 10:33:06;;;;;;;8.68;7.63;;;;;;;12.31;90.28;95516.50;5044976;28;20712;-66
2023/05/14 10:35:51;;;;;;;10.65;8.35;;;;;;;12.35;90.46;95518.06;5045602;28;20222;-64
2023/05/14 10:38:17;;;;;;;9.00;7.97;;;;;;;12.15;90.67;95516.97;5039422;28;20317;-66
2023/05/14 10:40:47;;;;;;;9.13;7.60;;;;;;;12.09;91.20;95517.19;5037066;28;20292;-65
2023/05/14 10:43:15;;;;;;;9.35;8.65;;;;;;;12.09;91.78;95516.38;5042617;28;20683;-65
2023/05/14 10:45:43;;;;;;;9.07;8.20;;;;;;;12.10;92.48;95511.22;5039437;28;20774;-65
2023/05/14 10:48:10;;;;;;;9.27;8.40;;;;;;;12.16;91.21;95517.81;5044262;28;20195;-64
2023/05/14 10:50:38;;;;;;;10.10;9.20;;;;;;;12.23;91.45;95512.47;5044888;28;20276;-65
2023/05/14 10:53:05;;;;;;;9.50;8.60;;;;;;;12.31;91.37;95502.03;5045337;28;20766;-70
2023/05/14 10:55:31;;;;;;;8.82;8.02;;;;;;;12.37;90.39;95511.19;5045476;28;20797;-68
2023/05/14 10:58:00;;;;;;;10.63;7.70;;;;;;;12.44;90.18;95499.88;5045247;28;20267;-67
2023/05/14 11:00:27;;;;;;;7.65;7.15;;;;;;;12.66;89.88;95498.28;5042898;28;20598;-67
2023/05/14 11:02:56;;;;;;;9.02;7.22;;;;;;;12.67;88.12;95514.41;5044141;28;20210;-69
2023/05/14 11:05:26;;;;;;;8.68;7.20;;;;;;;12.78;87.93;95508.06;5047314;28;20202;-66
2023/05/14 11:07:56;;;;;;;7.88;7.15;;;;;;;12.96;87.76;95516.78;5046383;28;20474;-64
2023/05/14 11:10:24;;;;;;;8.35;7.47;;;;;;;12.94;87.09;95514.28;5045000;28;20234;-68
2023/05/14 11:12:52;;;;;;;7.35;6.72;;;;;;;13.08;86.94;95520.63;5046223;28;20210;-68
2023/05/14 11:15:21;;;;;;;7.55;6.85;;;;;;;13.05;87.29;95515.63;5044417;28;20320;-69
2023/05/14 11:17:49;;;;;;;6.97;6.47;;;;;;;13.03;86.43;95519.94;5042182;28;20775;-68
2023/05/14 11:20:16;;;;;;;8.88;7.47;;;;;;;13.19;86.49;95508.31;5044553;28;20692;-65
2023/05/14 11:22:44;;;;;;;7.32;6.70;;;;;;;13.34;85.43;95507.78;5044471;28;20286;-68
2023/05/14 11:25:13;;;;;;;7.28;6.38;;;;;;;13.48;84.17;95513.19;5044320;28;20908;-66
2023/05/14 11:27:42;;;;;;;7.05;6.45;;;;;;;13.53;84.25;95502.81;5044485;28;20217;-68
2023/05/14 11:30:13;;;;;;;7.50;6.90;;;;;;;13.46;84.37;95491.16;5046209;28;20259;-68
2023/05/14 11:32:43;;;;;;;7.20;6.60;;;;;;;13.54;83.82;95502.75;5047459;28;20206;-69
2023/05/14 11:35:10;;;;;;;8.02;7.03;;;;;;;13.57;83.95;95500.06;5046693;28;20780;-66